Glen Oaks, New York
Current Conditions -  °F | °C
As of 8:51 AM on Friday 19 Dec 2014 (Local Time) from KJFK Reporting Station
Broken Clouds Broken Clouds  
Wind Chill: 29°   Ceiling: 3700
Heat Index: 38°   Visibility: 10mi
Dew Point: 21°   Wind: 16mph
Humidity: 51%   Direction: 320°NW
Pressure: 30.05"   Gusts: NA
Location:  40.75°N, 73.71°W
Report Text: KJFK 191351Z 32014KT 10SM BKN037 03/M06 A3005 RMK AO2 SLP175 T00331061 $
Loading
Personal Weather Stations






























Interactive Weather Map New forecast layout! Learn more

10-Day Weather Forecast

Advertisements
Track Severe Weather on mobile